Tinsdal — V2AJ2 — position and weather

sailwx.info

Track history (hours):
 
Tides and Currents Weather Stations Pressure Air Temp Water Temp Dewpoint Dewpoint Depression Visibility Wind Speed Wind Dir Waves Ship Positions

Tinsdal

Last reported at 2015-Aug-01 04:05 UTC. Time now 2015-Aug-04 11:50 UTC.
Position N 53°33' E 000°34'.

Length 90 m; draft 4 m.

Type: Cargo ship. MMSI: 305573000.

Date/timePositionNaut miles runAvg speedWind from/ knotsBaromVisibWave heightAir tempDewpointWater temp
2015-Aug-01 04:05N 53°33' E 000°34'611.6
2015-Aug-01 03:33N 53°39' E 000°30'1111.2
2015-Aug-01 02:34N 53°49' E 000°21'1110.9
2015-Aug-01 01:33N 53°58' E 000°13'1010.1
2015-Aug-01 00:34N 54°07' E 000°04'9 9.3
2015-Jul-31 23:34N 54°15' W 000°05'9 8.7
2015-Jul-31 22:34N 54°21' W 000°15'8 8.3
2015-Jul-31 21:34N 54°27' W 000°25'30 2.4
2015-Jul-31 09:12N 54°35' W 001°14'0 0.0
2015-Jul-31 06:30N 54°35' W 001°14'26 1.4
2015-Jul-30 12:15N 54°31' W 000°31'6 8.3
2015-Jul-30 11:33N 54°27' W 000°24'9 9.0
2015-Jul-30 10:33N 54°20' W 000°14'10 9.6
2015-Jul-30 09:33N 54°13' W 000°03'9 9.5
2015-Jul-30 08:33N 54°05' E 000°07'10 9.5
2015-Jul-30 07:33N 53°57' E 000°14'9 8.8
2015-Jul-30 06:33N 53°49' E 000°21'8 8.5
2015-Jul-30 05:33N 53°41' E 000°28'39 7.9
2015-Jul-30 00:33N 53°14' E 001°15'1110.7
2015-Jul-29 23:34N 53°05' E 001°25'1110.7
2015-Jul-29 22:34N 52°57' E 001°36'10 9.8
2015-Jul-29 21:31N 52°49' E 001°49'8 8.2
2015-Jul-29 20:33N 52°44' E 001°59'7 7.1
2015-Jul-29 19:34N 52°37' E 002°01'6 6.0
2015-Jul-29 18:34N 52°31' E 001°59'8 6.4
2015-Jul-29 17:18N 52°24' E 001°57'9 7.6
2015-Jul-29 16:05N 52°14' E 001°54'5 9.1
2015-Jul-29 15:33N 52°10' E 001°53'1010.2
2015-Jul-29 14:34N 51°60' E 001°50'1110.6
2015-Jul-29 13:33N 51°49' E 001°48'1010.3
2015-Jul-29 12:33N 51°39' E 001°49'1010.3
2015-Jul-29 11:33N 51°29' E 001°49'1111.0
2015-Jul-29 10:33N 51°18' E 001°44'1010.3
2015-Jul-29 09:34N 51°08' E 001°41'1311.1
2015-Jul-29 08:26N 50°58' E 001°29'  
2015-Jul-24 19:04N 39°15' W 009°50'5 9.0
2015-Jul-24 18:33N 39°10' W 009°50'9 8.9
2015-Jul-24 17:33N 39°01' W 009°50'9 9.0
2015-Jul-24 16:33N 38°52' W 009°50'9 9.0
2015-Jul-24 15:33N 38°43' W 009°50'9 9.0
2015-Jul-24 14:33N 38°34' W 009°49'9 9.1
2015-Jul-24 13:33N 38°25' W 009°48'9 9.1
2015-Jul-24 12:33N 38°16' W 009°47'9 8.6
2015-Jul-24 11:31N 38°07' W 009°46'9 8.9
2015-Jul-24 10:31N 37°58' W 009°45'8 8.6
2015-Jul-24 09:33N 37°50' W 009°44'58 9.1
2015-Jul-24 03:12N 36°52' W 009°47'8 9.3
2015-Jul-24 02:18N 36°44' W 009°47'16 8.7
2015-Jul-24 00:27N 36°28' W 009°45'35 8.3
2015-Jul-23 20:11N 35°52' W 009°43'5 8.1
2015-Jul-23 19:32N 35°47' W 009°42'8 7.7
2015-Jul-23 18:33N 35°40' W 009°42'35 7.9
2015-Jul-23 14:07N 35°05' W 009°39'5 7.8
2015-Jul-23 13:32N 35°00' W 009°38'16 8.0
2015-Jul-23 11:31N 34°44' W 009°37'12 8.0
2015-Jul-23 10:04N 34°33' W 009°36'4 7.9
2015-Jul-23 09:33N 34°29' W 009°36'8 7.9
2015-Jul-23 08:33N 34°21' W 009°35'8 7.9
2015-Jul-23 07:33N 34°13' W 009°34'8 8.1
2015-Jul-23 06:32N 34°05' W 009°34'8 7.9
2015-Jul-23 05:33N 33°57' W 009°33'9 8.1
2015-Jul-23 04:30N 33°48' W 009°32'8 8.4
2015-Jul-23 03:33N 33°40' W 009°32'9 8.6
2015-Jul-23 02:32N 33°32' W 009°31'9 8.5
2015-Jul-23 01:31N 33°23' W 009°30'9 8.5
2015-Jul-23 00:29N 33°14' W 009°30'27 8.4
2015-Jul-22 21:15N 32°47' W 009°27'6 8.4
2015-Jul-22 20:33N 32°41' W 009°27'8 8.3
2015-Jul-22 19:33N 32°33' W 009°27'8 8.0
2015-Jul-22 18:33N 32°26' W 009°23'9 7.6
2015-Jul-22 17:24N 32°19' W 009°17'  
Track history (hours):
 
Tides and Currents Weather Stations Pressure Air Temp Water Temp Dewpoint Dewpoint Depression Visibility Wind Speed Wind Dir Waves Ship Positions

Tinsdal

Last reported at 2015-Aug-01 04:05 UTC. Time now 2015-Aug-04 11:50 UTC.
Position N 53°33' E 000°34'.

Length 90 m; draft 4 m.

Type: Cargo ship. MMSI: 305573000.

Date/timePositionNaut miles runAvg speedWind from/ knotsBaromVisibWave heightAir tempDewpointWater temp
2015-Aug-01 04:05N 53°33' E 000°34'611.6
2015-Aug-01 03:33N 53°39' E 000°30'1111.2
2015-Aug-01 02:34N 53°49' E 000°21'1110.9
2015-Aug-01 01:33N 53°58' E 000°13'1010.1
2015-Aug-01 00:34N 54°07' E 000°04'9 9.3
2015-Jul-31 23:34N 54°15' W 000°05'9 8.7
2015-Jul-31 22:34N 54°21' W 000°15'8 8.3
2015-Jul-31 21:34N 54°27' W 000°25'30 2.4
2015-Jul-31 09:12N 54°35' W 001°14'0 0.0
2015-Jul-31 06:30N 54°35' W 001°14'26 1.4
2015-Jul-30 12:15N 54°31' W 000°31'6 8.3
2015-Jul-30 11:33N 54°27' W 000°24'9 9.0
2015-Jul-30 10:33N 54°20' W 000°14'10 9.6
2015-Jul-30 09:33N 54°13' W 000°03'9 9.5
2015-Jul-30 08:33N 54°05' E 000°07'10 9.5
2015-Jul-30 07:33N 53°57' E 000°14'9 8.8
2015-Jul-30 06:33N 53°49' E 000°21'8 8.5
2015-Jul-30 05:33N 53°41' E 000°28'39 7.9
2015-Jul-30 00:33N 53°14' E 001°15'1110.7
2015-Jul-29 23:34N 53°05' E 001°25'1110.7
2015-Jul-29 22:34N 52°57' E 001°36'10 9.8
2015-Jul-29 21:31N 52°49' E 001°49'8 8.2
2015-Jul-29 20:33N 52°44' E 001°59'7 7.1
2015-Jul-29 19:34N 52°37' E 002°01'6 6.0
2015-Jul-29 18:34N 52°31' E 001°59'8 6.4
2015-Jul-29 17:18N 52°24' E 001°57'9 7.6
2015-Jul-29 16:05N 52°14' E 001°54'5 9.1
2015-Jul-29 15:33N 52°10' E 001°53'1010.2
2015-Jul-29 14:34N 51°60' E 001°50'1110.6
2015-Jul-29 13:33N 51°49' E 001°48'1010.3
2015-Jul-29 12:33N 51°39' E 001°49'1010.3
2015-Jul-29 11:33N 51°29' E 001°49'1111.0
2015-Jul-29 10:33N 51°18' E 001°44'1010.3
2015-Jul-29 09:34N 51°08' E 001°41'1311.1
2015-Jul-29 08:26N 50°58' E 001°29'  
2015-Jul-24 19:04N 39°15' W 009°50'5 9.0
2015-Jul-24 18:33N 39°10' W 009°50'9 8.9
2015-Jul-24 17:33N 39°01' W 009°50'9 9.0
2015-Jul-24 16:33N 38°52' W 009°50'9 9.0
2015-Jul-24 15:33N 38°43' W 009°50'9 9.0
2015-Jul-24 14:33N 38°34' W 009°49'9 9.1
2015-Jul-24 13:33N 38°25' W 009°48'9 9.1
2015-Jul-24 12:33N 38°16' W 009°47'9 8.6
2015-Jul-24 11:31N 38°07' W 009°46'9 8.9
2015-Jul-24 10:31N 37°58' W 009°45'8 8.6
2015-Jul-24 09:33N 37°50' W 009°44'58 9.1
2015-Jul-24 03:12N 36°52' W 009°47'8 9.3
2015-Jul-24 02:18N 36°44' W 009°47'16 8.7
2015-Jul-24 00:27N 36°28' W 009°45'35 8.3
2015-Jul-23 20:11N 35°52' W 009°43'5 8.1
2015-Jul-23 19:32N 35°47' W 009°42'8 7.7
2015-Jul-23 18:33N 35°40' W 009°42'35 7.9
2015-Jul-23 14:07N 35°05' W 009°39'5 7.8
2015-Jul-23 13:32N 35°00' W 009°38'16 8.0
2015-Jul-23 11:31N 34°44' W 009°37'12 8.0
2015-Jul-23 10:04N 34°33' W 009°36'4 7.9
2015-Jul-23 09:33N 34°29' W 009°36'8 7.9
2015-Jul-23 08:33N 34°21' W 009°35'8 7.9
2015-Jul-23 07:33N 34°13' W 009°34'8 8.1
2015-Jul-23 06:32N 34°05' W 009°34'8 7.9
2015-Jul-23 05:33N 33°57' W 009°33'9 8.1
2015-Jul-23 04:30N 33°48' W 009°32'8 8.4
2015-Jul-23 03:33N 33°40' W 009°32'9 8.6
2015-Jul-23 02:32N 33°32' W 009°31'9 8.5
2015-Jul-23 01:31N 33°23' W 009°30'9 8.5
2015-Jul-23 00:29N 33°14' W 009°30'27 8.4
2015-Jul-22 21:15N 32°47' W 009°27'6 8.4
2015-Jul-22 20:33N 32°41' W 009°27'8 8.3
2015-Jul-22 19:33N 32°33' W 009°27'8 8.0
2015-Jul-22 18:33N 32°26' W 009°23'9 7.6
2015-Jul-22 17:24N 32°19' W 009°17'  

Dump ship's entire track history